Time;durP1;ratioP1;P1;durP2;ratioP2;P2;SDS_P1;SDS_P2;PMS_P1;PMS_P2;Temp;Humidity;BMP_temperature;BMP_pressure;BME280_temperature;BME280_humidity;BME280_pressure;Samples;Min_cycle;Max_cycle;Signal;HPM_P1;HPM_P2
2022/10/24 00:00:19;;;;;;;2.00;1.15;;;;;;;19.33;59.93;100274.59;5043559;28;20028;-49
2022/10/24 00:02:45;;;;;;;3.75;1.48;;;;;;;19.34;60.07;100276.28;5045027;28;20052;-47
2022/10/24 00:05:13;;;;;;;1.92;1.25;;;;;;;19.34;59.97;100271.00;5053203;28;20039;-48
2022/10/24 00:07:39;;;;;;;1.98;1.30;;;;;;;19.33;60.03;100269.31;5046983;28;20526;-46
2022/10/24 00:10:06;;;;;;;2.63;1.10;;;;;;;19.34;59.83;100278.91;5050789;28;20037;-47
2022/10/24 00:12:31;;;;;;;4.68;1.27;;;;;;;19.35;59.96;100272.69;5053274;28;20078;-47
2022/10/24 00:14:57;;;;;;;2.80;1.30;;;;;;;19.32;59.96;100267.63;5048362;28;20436;-46
2022/10/24 00:17:22;;;;;;;4.22;1.58;;;;;;;19.34;59.87;100265.75;5051769;28;20016;-47
2022/10/24 00:19:47;;;;;;;6.82;1.60;;;;;;;19.34;59.89;100249.94;5047939;28;20685;-50
2022/10/24 00:22:13;;;;;;;1.92;1.23;;;;;;;19.33;59.96;100259.63;5067368;28;20055;-47
2022/10/24 00:24:38;;;;;;;3.15;1.35;;;;;;;19.33;60.01;100258.78;5041998;28;20102;-46
2022/10/24 00:27:03;;;;;;;2.80;1.20;;;;;;;19.32;59.98;100263.19;5052349;28;20098;-49
2022/10/24 00:29:29;;;;;;;3.33;1.33;;;;;;;19.34;59.94;100263.09;5047604;28;20112;-47
2022/10/24 00:31:54;;;;;;;5.28;1.83;;;;;;;19.33;59.91;100261.41;5064590;28;20040;-46
2022/10/24 00:34:20;;;;;;;2.50;1.10;;;;;;;19.33;59.88;100250.88;5052300;28;20035;-48
2022/10/24 00:36:45;;;;;;;2.25;1.50;;;;;;;19.32;59.82;100255.28;5055948;28;20047;-46
2022/10/24 00:39:12;;;;;;;4.40;1.40;;;;;;;19.33;59.94;100248.25;5051655;28;20138;-47
2022/10/24 00:41:41;;;;;;;1.42;0.90;;;;;;;19.35;59.74;100254.25;5050214;28;20029;-47
2022/10/24 00:44:31;;;;;;;2.40;1.10;;;;;;;19.34;59.89;100257.84;5052047;28;20036;-47
2022/10/24 00:47:17;;;;;;;4.55;1.55;;;;;;;19.33;59.81;100262.25;5058746;28;20071;-47
2022/10/24 00:49:59;;;;;;;3.47;1.60;;;;;;;19.34;59.93;100252.56;5056811;28;20048;-48
2022/10/24 00:52:30;;;;;;;3.30;1.45;;;;;;;19.31;60.14;100250.13;5057016;28;20098;-47
2022/10/24 00:54:59;;;;;;;1.88;1.30;;;;;;;19.32;59.84;100252.66;5053488;28;20036;-47
2022/10/24 00:57:28;;;;;;;2.75;1.20;;;;;;;19.32;60.17;100260.56;5049540;28;20453;-48
2022/10/24 00:59:59;;;;;;;3.03;1.60;;;;;;;19.32;59.97;100263.19;5047135;28;20041;-47
2022/10/24 01:02:24;;;;;;;2.42;1.20;;;;;;;19.32;59.90;100263.19;5055479;28;20516;-45
2022/10/24 01:04:53;;;;;;;2.75;1.42;;;;;;;19.31;60.16;100265.94;5050802;28;20028;-46
2022/10/24 01:07:55;;;;;;;2.72;1.25;;;;;;;19.32;59.85;100259.72;5057716;28;20528;-47
2022/10/24 01:10:21;;;;;;;3.00;1.17;;;;;;;19.33;59.95;100266.69;5056883;28;20507;-47
2022/10/24 01:13:21;;;;;;;3.50;1.52;;;;;;;19.33;59.96;100258.78;5051712;28;20036;-48
2022/10/24 01:15:50;;;;;;;3.90;1.38;;;;;;;19.32;59.88;100265.81;5054250;28;20032;-47
2022/10/24 01:18:23;;;;;;;2.42;1.35;;;;;;;19.32;59.76;100262.34;5050648;28;20029;-47
2022/10/24 01:21:34;;;;;;;5.75;1.20;;;;;;;19.33;59.81;100258.78;5049680;28;20753;-47
2022/10/24 01:24:09;;;;;;;1.23;0.95;;;;;;;19.32;59.76;100251.81;5052787;28;20505;-48
2022/10/24 01:26:55;;;;;;;2.58;1.40;;;;;;;19.32;59.88;100249.19;5051481;28;20090;-49
2022/10/24 01:29:43;;;;;;;2.45;1.15;;;;;;;19.31;59.81;100240.47;5052603;28;20024;-49
2022/10/24 01:32:21;;;;;;;4.75;1.83;;;;;;;19.31;59.85;100235.19;5054540;28;20097;-49
2022/10/24 01:34:56;;;;;;;4.43;1.55;;;;;;;19.33;59.82;100222.75;5045753;28;20039;-47
2022/10/24 01:37:37;;;;;;;2.28;1.10;;;;;;;19.32;59.70;100210.53;5048716;28;20033;-48
2022/10/24 01:40:12;;;;;;;3.38;1.80;;;;;;;19.32;59.88;100209.66;5052491;28;20520;-50
2022/10/24 01:42:41;;;;;;;2.75;1.45;;;;;;;19.29;59.83;100205.47;5049563;28;20060;-47
2022/10/24 01:45:11;;;;;;;2.20;1.23;;;;;;;19.28;60.25;100202.91;5050723;28;20063;-46
2022/10/24 01:47:44;;;;;;;2.60;1.13;;;;;;;19.31;59.64;100200.94;5051102;28;20020;-46
2022/10/24 01:50:13;;;;;;;2.47;1.30;;;;;;;19.31;59.84;100187.78;5051779;28;20021;-47
2022/10/24 01:52:42;;;;;;;1.90;1.40;;;;;;;19.30;59.76;100187.88;5052806;28;20033;-47
2022/10/24 01:55:09;;;;;;;2.65;1.40;;;;;;;19.30;59.82;100193.13;5049899;28;20041;-47
2022/10/24 01:57:34;;;;;;;5.05;1.75;;;;;;;19.29;59.85;100188.81;5050884;28;20041;-50
2022/10/24 02:00:00;;;;;;;4.10;1.48;;;;;;;19.30;59.89;100191.34;5047575;28;20090;-46
2022/10/24 02:02:28;;;;;;;2.03;1.20;;;;;;;19.29;59.85;100188.81;5052012;28;20025;-47
2022/10/24 02:05:24;;;;;;;3.05;1.48;;;;;;;19.29;59.99;100200.19;5052997;28;20737;-45
2022/10/24 02:07:56;;;;;;;1.48;1.00;;;;;;;19.29;59.79;100197.56;5055024;28;20040;-51
2022/10/24 02:10:28;;;;;;;3.42;1.50;;;;;;;19.28;59.92;100201.16;5050604;28;20061;-47
2022/10/24 02:13:00;;;;;;;2.92;1.33;;;;;;;19.28;59.87;100198.53;5053493;28;20036;-47
2022/10/24 02:15:30;;;;;;;3.20;1.23;;;;;;;19.28;59.85;100202.91;5049894;28;20034;-50
2022/10/24 02:17:56;;;;;;;1.92;1.27;;;;;;;19.27;59.71;100186.25;5059697;28;20036;-46
2022/10/24 02:20:29;;;;;;;3.47;1.58;;;;;;;19.26;59.93;100185.41;5057855;28;20695;-47
2022/10/24 02:23:02;;;;;;;1.98;1.27;;;;;;;19.26;59.63;100182.78;5052176;28;20039;-47
2022/10/24 02:25:33;;;;;;;3.83;1.30;;;;;;;19.29;59.79;100188.81;5059477;28;20105;-48
2022/10/24 02:28:08;;;;;;;2.22;1.27;;;;;;;19.28;59.67;100188.00;5034513;28;20037;-49
2022/10/24 02:30:41;;;;;;;3.00;1.30;;;;;;;19.29;59.81;100186.16;5058794;28;20032;-46
2022/10/24 02:33:08;;;;;;;2.33;1.40;;;;;;;19.29;59.71;100199.34;5053209;28;20032;-47
2022/10/24 02:35:36;;;;;;;1.67;1.00;;;;;;;19.29;59.77;100188.81;5051980;28;20028;-46
2022/10/24 02:38:08;;;;;;;4.05;1.50;;;;;;;19.29;59.80;100194.06;5059650;28;20588;-48
2022/10/24 02:40:35;;;;;;;3.05;1.20;;;;;;;19.29;59.72;100197.56;5062665;28;20101;-46
2022/10/24 02:43:03;;;;;;;2.22;1.40;;;;;;;19.29;59.52;100188.81;5050545;28;20037;-47
2022/10/24 02:45:29;;;;;;;4.03;1.73;;;;;;;19.26;59.79;100180.13;5053353;28;20408;-47
2022/10/24 02:48:01;;;;;;;4.28;1.40;;;;;;;19.27;59.68;100178.34;5059191;28;20036;-50
2022/10/24 02:50:28;;;;;;;3.05;1.38;;;;;;;19.25;59.79;100175.81;5053402;28;20028;-47
2022/10/24 02:52:53;;;;;;;4.85;1.42;;;;;;;19.26;59.72;100174.88;5059128;28;20365;-47
2022/10/24 02:55:19;;;;;;;2.28;1.17;;;;;;;19.27;59.73;100167.81;5048842;28;20037;-51
2022/10/24 02:57:44;;;;;;;2.00;1.08;;;;;;;19.25;59.79;100178.44;5051647;28;20041;-50
2022/10/24 03:00:10;;;;;;;2.63;1.20;;;;;;;19.24;59.82;100174.13;5051218;28;20416;-49
2022/10/24 03:02:36;;;;;;;1.90;1.20;;;;;;;19.23;59.82;100177.72;5055873;28;20539;-42
2022/10/24 03:05:01;;;;;;;2.20;1.05;;;;;;;19.25;59.81;100177.63;5047517;28;20033;-41
2022/10/24 03:07:26;;;;;;;2.20;1.20;;;;;;;19.25;59.87;100167.09;5054247;28;20033;-42
2022/10/24 03:09:52;;;;;;;2.22;1.25;;;;;;;19.26;59.78;100166.13;5052198;28;20401;-41
2022/10/24 03:12:17;;;;;;;3.85;1.65;;;;;;;19.25;59.76;100162.63;5045782;28;20040;-47
2022/10/24 03:14:43;;;;;;;3.47;1.10;;;;;;;19.26;59.79;100161.69;5045904;28;20580;-48
2022/10/24 03:17:09;;;;;;;3.38;1.33;;;;;;;19.25;59.82;100160.00;5048550;28;20424;-47
2022/10/24 03:19:34;;;;;;;3.67;1.27;;;;;;;19.25;59.71;100161.81;5052340;28;20041;-47
2022/10/24 03:22:00;;;;;;;3.97;1.30;;;;;;;19.25;59.73;100167.09;5048025;28;20037;-48
2022/10/24 03:24:25;;;;;;;2.42;1.50;;;;;;;19.24;59.72;100166.25;5053785;28;20044;-47
2022/10/24 03:26:51;;;;;;;3.22;1.20;;;;;;;19.24;59.73;100165.38;5053291;28;20563;-47
2022/10/24 03:29:19;;;;;;;2.85;1.27;;;;;;;19.23;59.82;100172.44;5046976;28;20029;-47
2022/10/24 03:31:45;;;;;;;2.58;1.35;;;;;;;19.23;59.83;100168.97;5053832;28;20041;-46
2022/10/24 03:34:11;;;;;;;2.50;1.38;;;;;;;19.24;59.76;100168.03;5054622;28;20082;-48
2022/10/24 03:36:36;;;;;;;2.17;1.38;;;;;;;19.24;59.75;100183.81;5046953;28;20068;-47
2022/10/24 03:39:02;;;;;;;2.05;1.05;;;;;;;19.24;59.80;100168.88;5055824;28;20045;-47
2022/10/24 03:41:28;;;;;;;2.47;1.10;;;;;;;19.24;59.66;100171.50;5051509;28;20067;-47
2022/10/24 03:43:53;;;;;;;3.05;1.23;;;;;;;19.24;59.79;100174.13;5045261;28;20038;-48
2022/10/24 03:46:18;;;;;;;2.58;1.30;;;;;;;19.23;59.93;100180.34;5050558;28;20695;-47
2022/10/24 03:48:44;;;;;;;2.70;1.20;;;;;;;19.23;59.96;100185.59;5055807;28;20059;-47
2022/10/24 03:51:09;;;;;;;2.97;1.50;;;;;;;19.24;59.84;100181.19;5051917;28;20630;-47
2022/10/24 03:53:35;;;;;;;4.18;1.10;;;;;;;19.24;59.89;100181.19;5044983;28;20032;-46
2022/10/24 03:56:00;;;;;;;3.05;1.65;;;;;;;19.23;59.74;100187.38;5050262;28;20024;-48
2022/10/24 03:58:26;;;;;;;1.70;1.10;;;;;;;19.25;59.68;100193.41;5052311;28;20032;-47
2022/10/24 04:00:55;;;;;;;2.10;1.38;;;;;;;19.23;59.40;100182.97;5047318;28;20498;-47
2022/10/24 04:03:21;;;;;;;3.00;1.50;;;;;;;19.23;59.80;100188.25;5053524;28;20082;-46
2022/10/24 04:05:46;;;;;;;1.70;1.23;;;;;;;19.23;59.75;100184.75;5050818;28;20041;-49
2022/10/24 04:08:12;;;;;;;3.55;1.63;;;;;;;19.22;59.77;100185.72;5050259;28;20037;-47
2022/10/24 04:10:37;;;;;;;2.75;1.38;;;;;;;19.22;59.70;100185.72;5055719;28;20051;-46
2022/10/24 04:13:03;;;;;;;1.88;1.27;;;;;;;19.22;59.79;100178.63;5050107;28;20132;-48
2022/10/24 04:15:28;;;;;;;2.83;1.58;;;;;;;19.22;59.63;100181.28;5060610;28;20037;-49
2022/10/24 04:17:53;;;;;;;2.15;1.20;;;;;;;19.22;59.64;100186.53;5053283;28;20047;-48
2022/10/24 04:20:21;;;;;;;5.10;1.75;;;;;;;19.23;59.73;100184.75;5064320;28;20036;-46
2022/10/24 04:22:46;;;;;;;3.45;1.48;;;;;;;19.22;59.74;100173.38;5058009;28;20579;-47
2022/10/24 04:25:12;;;;;;;2.88;1.20;;;;;;;19.21;59.78;100187.50;5050315;28;20040;-45
2022/10/24 04:27:39;;;;;;;3.00;1.48;;;;;;;19.22;59.76;100178.63;5052623;28;20036;-47
2022/10/24 04:30:07;;;;;;;3.13;1.48;;;;;;;19.22;59.76;100180.47;5049306;28;20166;-49
2022/10/24 04:32:32;;;;;;;2.95;1.40;;;;;;;19.22;59.62;100178.63;5055859;28;20167;-46
2022/10/24 04:34:58;;;;;;;2.90;1.45;;;;;;;19.22;59.67;100183.91;5046584;28;20529;-48
2022/10/24 04:37:23;;;;;;;2.50;1.40;;;;;;;19.22;59.65;100175.19;5051674;28;20048;-49
2022/10/24 04:39:49;;;;;;;3.33;1.52;;;;;;;19.23;59.66;100177.72;5051834;28;20036;-47
2022/10/24 04:42:18;;;;;;;2.28;1.40;;;;;;;19.23;59.69;100180.34;5064276;28;20060;-47
2022/10/24 04:44:43;;;;;;;1.83;1.10;;;;;;;19.28;59.43;100171.31;5053192;28;20135;-47
2022/10/24 04:47:08;;;;;;;2.47;1.02;;;;;;;19.32;59.41;100180.69;5058682;28;20043;-48
2022/10/24 04:49:34;;;;;;;1.80;1.20;;;;;;;19.29;59.52;100179.13;5056730;28;20129;-46
2022/10/24 04:51:59;;;;;;;2.13;1.30;;;;;;;19.29;59.57;100181.75;5052366;28;20029;-49
2022/10/24 04:54:25;;;;;;;3.58;1.38;;;;;;;19.28;59.64;100182.72;5058723;28;20056;-48
2022/10/24 04:56:50;;;;;;;2.67;1.45;;;;;;;19.29;59.63;100181.75;5051992;28;20520;-50
2022/10/24 04:59:15;;;;;;;1.95;1.20;;;;;;;19.37;59.52;100183.91;5054386;28;20028;-46
2022/10/24 05:01:41;;;;;;;1.80;1.30;;;;;;;19.38;59.54;100182.94;5051435;28;20213;-46
2022/10/24 05:04:07;;;;;;;4.35;1.42;;;;;;;19.40;59.26;100178.44;5054169;28;20036;-47
2022/10/24 05:06:32;;;;;;;2.10;1.55;;;;;;;19.37;59.42;100182.13;5046458;28;20598;-45
2022/10/24 05:08:57;;;;;;;2.08;1.42;;;;;;;19.41;59.68;100185.38;5066280;28;20094;-47
2022/10/24 05:11:23;;;;;;;3.28;1.25;;;;;;;19.43;59.24;100180.84;5053378;28;20060;-46
2022/10/24 05:13:48;;;;;;;1.45;0.98;;;;;;;19.48;59.19;100176.13;5049054;28;20421;-47
2022/10/24 05:16:13;;;;;;;1.83;1.10;;;;;;;19.47;59.36;100167.34;5050613;28;20040;-48
2022/10/24 05:18:41;;;;;;;3.30;1.42;;;;;;;19.52;59.12;100180.25;5054691;28;20071;-47
2022/10/24 05:21:07;;;;;;;3.17;1.40;;;;;;;19.54;58.98;100184.47;5047358;28;20076;-47
2022/10/24 05:23:32;;;;;;;4.03;1.38;;;;;;;19.51;58.98;100191.72;5056233;28;20481;-46
2022/10/24 05:25:57;;;;;;;2.63;1.33;;;;;;;19.55;59.07;100194.03;5048549;28;20060;-50
2022/10/24 05:28:24;;;;;;;3.40;1.40;;;;;;;19.52;59.16;100196.06;5047577;28;20128;-47
2022/10/24 05:30:49;;;;;;;2.20;1.30;;;;;;;19.57;59.05;100193.94;5054886;28;20032;-47
2022/10/24 05:33:15;;;;;;;2.70;1.40;;;;;;;19.65;58.89;100202.16;5053972;28;20102;-47
2022/10/24 05:35:40;;;;;;;4.18;1.20;;;;;;;19.70;58.77;100203.53;5050104;28;20553;-47
2022/10/24 05:38:06;;;;;;;2.70;1.00;;;;;;;19.81;58.58;100208.09;5048246;28;20029;-48
2022/10/24 05:40:31;;;;;;;2.00;1.30;;;;;;;19.79;58.56;100210.81;5060709;28;20489;-47
2022/10/24 05:42:57;;;;;;;3.63;1.27;;;;;;;19.79;58.55;100207.34;5049175;28;20044;-47
2022/10/24 05:45:22;;;;;;;3.65;0.90;;;;;;;19.79;58.36;100209.97;5049992;28;20523;-46
2022/10/24 05:47:47;;;;;;;3.55;1.70;;;;;;;19.86;58.37;100207.78;5054531;28;20094;-47
2022/10/24 05:50:13;;;;;;;1.42;1.00;;;;;;;19.87;58.18;100212.09;5053874;28;20036;-48
2022/10/24 05:52:41;;;;;;;2.45;0.90;;;;;;;19.91;58.16;100205.66;5056545;28;20057;-47
2022/10/24 05:55:07;;;;;;;1.92;1.20;;;;;;;19.83;58.34;100205.34;5052519;28;20100;-47
2022/10/24 05:57:33;;;;;;;2.13;1.33;;;;;;;19.87;58.29;100196.28;5057814;28;20779;-47
2022/10/24 05:59:59;;;;;;;2.55;1.20;;;;;;;19.86;58.33;100199.88;5051724;28;20054;-49
2022/10/24 06:02:24;;;;;;;3.03;1.23;;;;;;;19.84;58.32;100210.53;5050862;28;20439;-47
2022/10/24 06:04:50;;;;;;;2.55;1.58;;;;;;;19.77;58.42;100198.69;5043921;28;20057;-48
2022/10/24 06:07:17;;;;;;;2.65;1.33;;;;;;;19.78;58.49;100201.25;5054742;28;20036;-47
2022/10/24 06:09:42;;;;;;;2.42;1.13;;;;;;;19.73;58.51;100213.88;5059511;28;20719;-47
2022/10/24 06:12:09;;;;;;;2.15;1.10;;;;;;;19.74;58.45;100201.53;5049022;28;20051;-47
2022/10/24 06:14:36;;;;;;;3.45;0.90;;;;;;;19.75;58.59;100208.50;5047213;28;20033;-48
2022/10/24 06:17:04;;;;;;;1.73;0.80;;;;;;;19.75;58.42;100208.50;5052208;28;20028;-48
2022/10/24 06:19:29;;;;;;;1.90;1.00;;;;;;;19.76;58.46;100210.19;5049254;28;20068;-47
2022/10/24 06:21:55;;;;;;;1.60;1.10;;;;;;;19.71;58.68;100209.66;5050599;28;20151;-48
2022/10/24 06:24:20;;;;;;;3.92;1.33;;;;;;;19.67;58.79;100218.72;5053166;28;20061;-47
2022/10/24 06:26:45;;;;;;;3.78;1.48;;;;;;;19.64;58.78;100218.94;5053993;28;20063;-49
2022/10/24 06:29:11;;;;;;;2.58;1.30;;;;;;;19.60;59.01;100214.81;5055278;28;20043;-48
2022/10/24 06:31:37;;;;;;;1.85;1.17;;;;;;;19.58;59.03;100209.63;5051741;28;20769;-43
2022/10/24 06:34:02;;;;;;;4.15;1.55;;;;;;;19.55;59.01;100220.38;5045095;28;20045;-41
2022/10/24 06:36:28;;;;;;;2.35;1.15;;;;;;;19.54;59.01;100228.41;5044027;28;20135;-42
2022/10/24 06:38:54;;;;;;;2.30;1.40;;;;;;;19.59;59.32;100229.78;5053511;28;20127;-42
2022/10/24 06:41:19;;;;;;;1.60;1.20;;;;;;;19.56;58.98;100237.88;5050642;28;20025;-42
2022/10/24 06:43:45;;;;;;;2.42;1.30;;;;;;;19.59;58.98;100242.09;5050151;28;20052;-43
2022/10/24 06:46:13;;;;;;;3.05;1.20;;;;;;;19.62;58.88;100241.91;5048853;28;20037;-42
2022/10/24 06:48:39;;;;;;;3.15;1.20;;;;;;;19.64;58.75;100240.84;5051490;28;20044;-41
2022/10/24 06:51:05;;;;;;;2.35;1.13;;;;;;;19.67;58.57;100250.31;5048138;28;20060;-42
2022/10/24 06:53:31;;;;;;;3.25;1.10;;;;;;;19.65;58.78;100263.63;5048100;28;20067;-41
2022/10/24 06:56:01;;;;;;;1.48;1.10;;;;;;;19.65;58.72;100257.50;5057496;28;20028;-42
2022/10/24 06:58:34;;;;;;;2.30;1.30;;;;;;;19.65;58.89;100257.50;5054756;28;20044;-42
2022/10/24 07:01:05;;;;;;;3.03;1.40;;;;;;;19.66;58.98;100252.16;5044706;28;20037;-44
2022/10/24 07:03:31;;;;;;;3.92;1.45;;;;;;;19.57;59.79;100254.53;5048340;28;20759;-40
2022/10/24 07:05:56;;;;;;;8.40;1.30;;;;;;;19.61;60.05;100262.13;5050734;28;20063;-40
2022/10/24 07:08:22;;;;;;;2.38;1.15;;;;;;;19.73;59.33;100263.09;5049829;28;20791;-40
2022/10/24 07:10:47;;;;;;;4.00;1.55;;;;;;;19.88;59.64;100258.63;5049192;28;20027;-45
2022/10/24 07:13:12;;;;;;;4.95;1.58;;;;;;;19.65;59.92;100260.13;5051223;28;20037;-42
2022/10/24 07:15:38;;;;;;;2.15;1.38;;;;;;;19.64;59.40;100256.66;5048883;28;20158;-44
2022/10/24 07:18:03;;;;;;;6.68;1.50;;;;;;;19.62;59.28;100261.19;5052313;28;20147;-42
2022/10/24 07:20:29;;;;;;;7.22;1.67;;;;;;;19.64;60.06;100264.56;5047839;28;20063;-43
2022/10/24 07:22:54;;;;;;;5.45;1.50;;;;;;;19.61;59.99;100261.31;5050070;28;20090;-43
2022/10/24 07:25:19;;;;;;;4.85;1.25;;;;;;;19.60;60.14;100268.34;5068421;28;20093;-42
2022/10/24 07:27:45;;;;;;;2.35;1.35;;;;;;;19.57;60.30;100276.47;5050287;28;20097;-42
2022/10/24 07:30:17;;;;;;;2.28;1.13;;;;;;;19.59;60.41;100289.53;5049871;28;20056;-42
2022/10/24 07:32:42;;;;;;;10.98;1.65;;;;;;;19.57;60.36;100289.63;5046434;28;20044;-42
2022/10/24 07:35:11;;;;;;;2.08;1.20;;;;;;;19.58;60.40;100288.69;5049252;28;20036;-43
2022/10/24 07:37:36;;;;;;;3.53;1.38;;;;;;;19.59;60.46;100289.53;5049610;28;20038;-43
2022/10/24 07:40:01;;;;;;;9.68;1.48;;;;;;;19.57;60.42;100288.78;5058496;28;20575;-41
2022/10/24 07:42:27;;;;;;;3.30;1.13;;;;;;;19.58;60.44;100299.22;5053201;28;20043;-41
2022/10/24 07:44:52;;;;;;;4.45;1.40;;;;;;;19.60;60.54;100302.63;5054706;28;20043;-40
2022/10/24 07:47:17;;;;;;;4.63;1.50;;;;;;;19.57;60.61;100297.53;5053822;28;20120;-43
2022/10/24 07:49:43;;;;;;;3.42;1.05;;;;;;;19.59;60.37;100293.00;5043127;28;20760;-43
2022/10/24 07:52:08;;;;;;;6.30;1.25;;;;;;;19.57;60.55;100296.69;5047028;28;20047;-43
2022/10/24 07:54:34;;;;;;;4.70;1.30;;;;;;;19.58;60.53;100299.22;5072954;28;20085;-41
2022/10/24 07:56:59;;;;;;;2.45;1.27;;;;;;;19.59;60.52;100302.69;5047031;28;20071;-46
2022/10/24 07:59:24;;;;;;;2.03;1.10;;;;;;;19.58;60.54;100301.84;5039835;28;20043;-46
2022/10/24 08:01:50;;;;;;;4.88;1.52;;;;;;;19.58;60.55;100306.31;5047905;28;20547;-46
2022/10/24 08:04:15;;;;;;;1.73;1.15;;;;;;;19.59;60.51;100314.09;5047138;28;20037;-46
2022/10/24 08:06:41;;;;;;;2.92;1.50;;;;;;;19.58;60.51;100312.38;5046892;28;20410;-46
2022/10/24 08:09:07;;;;;;;3.55;1.38;;;;;;;19.59;60.60;100308.81;5046819;28;20075;-45
2022/10/24 08:11:33;;;;;;;2.67;1.17;;;;;;;19.59;60.59;100307.97;5047940;28;20028;-48
2022/10/24 08:14:01;;;;;;;3.45;1.23;;;;;;;19.58;60.58;100314.19;5043005;28;20094;-47
2022/10/24 08:16:26;;;;;;;1.85;1.00;;;;;;;19.59;60.77;100314.09;5054422;28;20506;-47
2022/10/24 08:18:54;;;;;;;1.98;1.23;;;;;;;19.59;60.67;100318.50;5055693;28;20181;-49
2022/10/24 08:21:21;;;;;;;3.38;1.25;;;;;;;19.59;60.56;100315.88;5055744;28;20035;-46
2022/10/24 08:23:48;;;;;;;2.08;1.38;;;;;;;19.61;60.65;100324.53;5044329;28;20068;-48
2022/10/24 08:26:16;;;;;;;2.40;1.40;;;;;;;19.59;60.64;100319.34;5043683;28;20733;-47
2022/10/24 08:28:42;;;;;;;2.72;1.23;;;;;;;19.60;60.64;100320.22;5046311;28;20068;-48
2022/10/24 08:31:11;;;;;;;2.17;1.20;;;;;;;19.60;60.67;100314.94;5050993;28;21071;-52
2022/10/24 08:33:36;;;;;;;2.33;0.90;;;;;;;19.60;60.71;100314.94;5062471;28;20445;-50
2022/10/24 08:36:06;;;;;;;2.90;1.20;;;;;;;19.60;60.77;100321.06;5045210;28;20058;-50
2022/10/24 08:38:31;;;;;;;4.50;1.10;;;;;;;19.61;60.76;100314.81;5055868;28;20054;-51
2022/10/24 08:40:57;;;;;;;2.78;1.10;;;;;;;19.59;60.70;100316.72;5046658;28;20477;-48
2022/10/24 08:43:24;;;;;;;3.40;1.10;;;;;;;19.59;60.74;100327.25;5049886;28;20035;-53
2022/10/24 08:46:17;;;;;;;3.08;1.33;;;;;;;19.59;60.59;100319.34;5042865;28;20501;-50
2022/10/24 08:48:49;;;;;;;2.47;1.10;;;;;;;19.73;60.63;100313.16;5054735;28;20083;-48
2022/10/24 08:51:37;;;;;;;4.55;1.63;;;;;;;19.75;60.73;100321.84;5049358;28;20532;-52
2022/10/24 08:54:05;;;;;;;3.05;1.25;;;;;;;19.68;60.50;100317.91;5052184;28;20090;-52
2022/10/24 08:56:32;;;;;;;1.98;1.10;;;;;;;19.69;60.79;100323.09;5047560;28;20032;-53
2022/10/24 08:59:00;;;;;;;5.28;1.00;;;;;;;19.69;60.55;100315.19;5048234;28;20032;-50
2022/10/24 09:01:26;;;;;;;3.72;1.00;;;;;;;19.66;60.93;100328.56;5054198;28;20067;-51
2022/10/24 09:03:51;;;;;;;3.13;0.95;;;;;;;19.70;60.72;100327.41;5059596;28;20696;-52
2022/10/24 09:06:18;;;;;;;2.55;1.20;;;;;;;19.67;60.81;100329.38;5054245;28;20033;-53
2022/10/24 09:08:57;;;;;;;3.15;1.13;;;;;;;19.66;60.38;100327.72;5050907;28;20095;-53
2022/10/24 09:11:36;;;;;;;1.30;1.00;;;;;;;19.69;60.41;100330.16;5057703;28;20028;-49
2022/10/24 09:14:10;;;;;;;3.88;1.00;;;;;;;19.63;60.48;100331.41;5062546;28;20039;-46
2022/10/24 09:16:37;;;;;;;1.73;1.20;;;;;;;19.70;60.51;100327.41;5050504;28;20029;-47
2022/10/24 09:19:03;;;;;;;2.55;1.20;;;;;;;19.64;60.44;100327.78;5053082;28;20045;-47
2022/10/24 09:21:28;;;;;;;1.45;0.85;;;;;;;19.68;60.71;100333.72;5053256;28;20086;-46
2022/10/24 09:23:54;;;;;;;3.08;1.00;;;;;;;19.67;60.59;100327.59;5056196;28;20040;-49
2022/10/24 09:26:27;;;;;;;2.70;1.13;;;;;;;19.68;60.38;100328.44;5060236;28;20094;-44
2022/10/24 09:28:54;;;;;;;4.10;1.17;;;;;;;19.71;60.21;100320.34;5047771;28;20045;-48
2022/10/24 09:31:23;;;;;;;1.52;1.10;;;;;;;19.69;60.27;100325.72;5051186;28;20041;-49
2022/10/24 09:33:51;;;;;;;3.20;1.10;;;;;;;19.66;60.46;100325.06;5056521;28;20123;-47
2022/10/24 09:36:19;;;;;;;1.50;1.00;;;;;;;19.67;60.39;100327.59;5052749;28;20041;-48
2022/10/24 09:38:47;;;;;;;4.03;1.27;;;;;;;19.67;60.43;100326.75;5057720;28;20045;-48
2022/10/24 09:41:28;;;;;;;2.03;1.15;;;;;;;19.69;60.16;100331.00;5047591;28;20082;-49
2022/10/24 09:43:59;;;;;;;2.03;0.93;;;;;;;19.70;60.28;100337.09;5053533;28;20532;-50
2022/10/24 09:46:40;;;;;;;1.65;1.00;;;;;;;19.68;60.27;100337.19;5053748;28;20037;-48
2022/10/24 09:49:12;;;;;;;1.67;0.85;;;;;;;19.72;60.27;100346.63;5050870;28;20048;-48
2022/10/24 09:51:46;;;;;;;2.58;0.88;;;;;;;19.74;60.42;100349.13;5051740;28;20195;-50
2022/10/24 09:54:17;;;;;;;2.50;0.97;;;;;;;19.68;60.45;100354.81;5055349;28;20373;-51
2022/10/24 09:56:48;;;;;;;3.95;1.45;;;;;;;19.69;60.34;100360.00;5054557;28;20571;-46
2022/10/24 09:59:23;;;;;;;2.50;1.15;;;;;;;19.76;60.70;100355.13;5046847;28;20647;-49
2022/10/24 10:01:48;;;;;;;;;;;;;;;19.74;60.31;100357.03;5047463;28;20053;-46
2022/10/24 10:04:16;;;;;;;3.78;1.05;;;;;;;19.75;60.35;100369.28;5051472;28;19917;-46
2022/10/24 10:06:44;;;;;;;1.92;0.95;;;;;;;19.80;60.99;100369.81;5049447;28;20039;-47
2022/10/24 10:09:12;;;;;;;1.33;0.80;;;;;;;19.69;60.31;100373.16;5047578;28;20059;-48
2022/10/24 10:11:38;;;;;;;2.58;0.93;;;;;;;19.69;60.42;100364.41;5048933;28;20028;-48
2022/10/24 10:14:23;;;;;;;2.72;1.20;;;;;;;19.72;60.41;100366.84;5049940;28;20033;-47
2022/10/24 10:17:00;;;;;;;1.40;0.80;;;;;;;19.70;60.40;100374.84;5053677;28;20662;-48
2022/10/24 10:19:31;;;;;;;2.17;1.02;;;;;;;19.71;60.43;100386.22;5051300;28;20119;-48
2022/10/24 10:22:19;;;;;;;2.25;0.95;;;;;;;19.70;60.41;100382.75;5050938;28;20076;-48
2022/10/24 10:24:45;;;;;;;2.67;0.98;;;;;;;19.68;60.49;100374.09;5046769;28;20048;-47
2022/10/24 10:27:24;;;;;;;2.35;0.90;;;;;;;19.71;60.56;100379.16;5053231;28;20036;-47
2022/10/24 10:30:08;;;;;;;2.05;1.15;;;;;;;19.69;60.63;100385.50;5057334;28;20164;-48
2022/10/24 10:32:48;;;;;;;1.83;0.80;;;;;;;19.71;60.46;100376.53;5049756;28;20169;-48
2022/10/24 10:35:41;;;;;;;7.20;1.00;;;;;;;19.70;60.51;100397.69;5053057;28;20732;-48
2022/10/24 10:38:28;;;;;;;2.05;1.00;;;;;;;19.73;60.50;100398.34;5048449;28;20068;-49
2022/10/24 10:41:06;;;;;;;4.32;1.02;;;;;;;19.73;60.42;100400.13;5055862;28;20175;-50
2022/10/24 10:43:43;;;;;;;2.28;0.85;;;;;;;19.82;60.31;100404.00;5050227;28;20374;-52
2022/10/24 10:46:29;;;;;;;2.47;1.05;;;;;;;19.73;60.38;100406.25;5046689;28;20029;-48
2022/10/24 10:49:14;;;;;;;1.85;0.90;;;;;;;19.79;60.32;100412.91;5049230;28;20041;-48
2022/10/24 10:51:47;;;;;;;;;;;;;;;19.73;60.34;100408.91;5048493;28;20033;-47
2022/10/24 10:54:28;;;;;;;1.20;0.70;;;;;;;19.74;60.59;100420.28;5045984;28;20645;-48
2022/10/24 10:56:59;;;;;;;1.63;1.05;;;;;;;19.76;60.25;100418.38;5049982;28;20048;-50
2022/10/24 10:59:40;;;;;;;1.63;0.90;;;;;;;19.72;60.47;100423.03;5055061;28;20032;-47
2022/10/24 11:02:20;;;;;;;4.53;0.88;;;;;;;19.71;60.24;100421.34;5046694;28;20488;-47
2022/10/24 11:04:52;;;;;;;1.65;0.85;;;;;;;20.08;61.02;100421.63;5047674;28;20853;-47
2022/10/24 11:07:46;;;;;;;2.28;0.82;;;;;;;20.02;60.26;100428.13;5056382;28;20032;-46
2022/10/24 11:10:19;;;;;;;2.97;0.95;;;;;;;20.09;60.58;100434.69;5048506;28;20437;-47
2022/10/24 11:12:45;;;;;;;6.03;1.10;;;;;;;20.16;60.12;100422.81;5049239;28;20048;-47
2022/10/24 11:15:23;;;;;;;2.30;0.98;;;;;;;20.18;59.84;100427.97;5050457;28;20047;-45
2022/10/24 11:18:00;;;;;;;4.75;1.40;;;;;;;20.27;59.56;100433.47;5054121;28;20033;-45
2022/10/24 11:20:50;;;;;;;1.90;1.02;;;;;;;20.24;59.83;100433.69;5046877;28;20834;-47
2022/10/24 11:23:35;;;;;;;2.03;0.80;;;;;;;20.16;59.50;100430.72;5051188;28;20097;-50
2022/10/24 11:26:09;;;;;;;3.17;1.13;;;;;;;19.97;59.91;100438.09;5048640;28;20049;-48
2022/10/24 11:28:46;;;;;;;2.75;0.98;;;;;;;19.83;60.33;100437.28;5048978;28;20043;-48
2022/10/24 11:31:25;;;;;;;2.78;0.80;;;;;;;19.77;60.28;100436.75;5051996;28;20045;-47
2022/10/24 11:34:02;;;;;;;1.85;0.88;;;;;;;19.76;60.54;100448.22;5045750;28;20090;-46
2022/10/24 11:36:40;;;;;;;4.25;1.23;;;;;;;19.74;60.39;100439.59;5050212;28;20029;-46